KASW

Warsaw Municipal Airport

Warsaw, Indiana, USA
METAR KASW 211315Z AUTO 19004KT 4SM -RA OVC006 19/19 A2969 RMK AO2
Observed Flight Rules
Jul-21 @ 13:15 UTC (24 minutes ago) Instrument Flight Rules
Wind Visibility Clouds Conditions
190° at 4 knots 4 miles
  • Overcast at 600' AGL
  • Light Rain
Temperatures Readings
Current 19°C / 66°F
Dewpoint 19°C / 66°F
Humidity 100%
Altimeter 29.69" Hg
Pressure 1005 hPa
Elevation 259
METAR KASW 211315Z AUTO 19004KT 4SM -RA OVC006 19/19 A2969 RMK AO2
Observed Flight Rules
Jul-21 @ 13:15 UTC
(24 minutes ago)
IFR
Wind Visibility
190° at 4 knots 4 miles
Clouds
  • Overcast at 600' AGL
Conditions
  • Light Rain
Temperature Dewpoint
19°C / 66°F 19°C / 66°F
Humidity Altimeter Pressure
100% 29.69" Hg 1005 hPa